sensor_id;sensor_type;location;lat;lon;timestamp;pressure;altitude;pressure_sealevel;temperature;humidity
75650;BME280;64245;51.282;22.494;2023-06-14T12:30:50;99157.28;;;15.98;89.44
75650;BME280;64245;51.282;22.494;2023-06-14T12:33:41;99143.13;;;15.88;91.21
75650;BME280;64245;51.282;22.494;2023-06-14T12:55:12;99152.22;;;14.71;100.00
75650;BME280;64245;51.282;22.494;2023-06-14T12:58:26;99154.53;;;14.82;100.00
75650;BME280;64245;51.282;22.494;2023-06-14T13:01:28;99148.66;;;14.79;100.00
75650;BME280;64245;51.282;22.494;2023-06-14T13:04:16;99168.59;;;14.94;100.00
75650;BME280;64245;51.282;22.494;2023-06-14T13:06:42;99166.06;;;15.24;99.42
75650;BME280;64245;51.282;22.494;2023-06-14T13:09:07;99183.59;;;15.44;99.66
75650;BME280;64245;51.282;22.494;2023-06-14T13:11:33;99162.72;;;15.44;99.43
75650;BME280;64245;51.282;22.494;2023-06-14T13:13:59;99167.06;;;15.62;98.26
75650;BME280;64245;51.282;22.494;2023-06-14T13:16:25;99167.06;;;15.62;98.87
75650;BME280;64245;51.282;22.494;2023-06-14T13:18:51;99155.22;;;16.00;97.90
75650;BME280;64245;51.282;22.494;2023-06-14T13:21:17;99171.31;;;16.62;92.91
75650;BME280;64245;51.282;22.494;2023-06-14T13:23:43;99167.16;;;17.40;88.16
75650;BME280;64245;51.282;22.494;2023-06-14T13:26:09;99151.28;;;17.79;87.07
75650;BME280;64245;51.282;22.494;2023-06-14T13:28:35;99156.16;;;18.26;88.25
75650;BME280;64245;51.282;22.494;2023-06-14T13:31:01;99149.78;;;18.19;83.01
75650;BME280;64245;51.282;22.494;2023-06-14T13:33:27;99161.25;;;18.36;82.55
75650;BME280;64245;51.282;22.494;2023-06-14T13:35:53;99140.72;;;18.40;84.25
75650;BME280;64245;51.282;22.494;2023-06-14T13:38:18;99126.59;;;18.30;85.23
75650;BME280;64245;51.282;22.494;2023-06-14T13:40:44;99153.84;;;18.86;82.72
75650;BME280;64245;51.282;22.494;2023-06-14T13:43:10;99139.88;;;18.68;82.55
75650;BME280;64245;51.282;22.494;2023-06-14T13:45:39;99134.91;;;18.50;82.72
75650;BME280;64245;51.282;22.494;2023-06-14T13:48:05;99153.13;;;18.43;84.98
75650;BME280;64245;51.282;22.494;2023-06-14T13:50:31;99146.34;;;18.60;82.63
75650;BME280;64245;51.282;22.494;2023-06-14T13:52:57;99155.03;;;19.11;79.58
75650;BME280;64245;51.282;22.494;2023-06-14T13:55:27;99123.34;;;19.58;81.04
75650;BME280;64245;51.282;22.494;2023-06-14T13:57:52;99142.25;;;19.59;82.58
75650;BME280;64245;51.282;22.494;2023-06-14T14:00:19;99145.22;;;19.71;80.47
75650;BME280;64245;51.282;22.494;2023-06-14T14:02:47;99144.69;;;19.48;79.38
75650;BME280;64245;51.282;22.494;2023-06-14T14:05:16;99147.31;;;19.69;80.15
75650;BME280;64245;51.282;22.494;2023-06-14T14:07:42;99122.91;;;19.67;81.24
75650;BME280;64245;51.282;22.494;2023-06-14T14:10:10;99133.03;;;19.87;78.93
75650;BME280;64245;51.282;22.494;2023-06-14T14:12:38;99109.31;;;19.20;80.84
75650;BME280;64245;51.282;22.494;2023-06-14T14:15:06;99101.38;;;18.84;79.79
75650;BME280;64245;51.282;22.494;2023-06-14T14:17:38;99139.47;;;18.64;84.05
75650;BME280;64245;51.282;22.494;2023-06-14T14:20:07;99117.53;;;18.23;81.94
75650;BME280;64245;51.282;22.494;2023-06-14T14:23:28;99132.78;;;18.17;82.57
75650;BME280;64245;51.282;22.494;2023-06-14T14:26:42;99113.66;;;18.39;83.10
75650;BME280;64245;51.282;22.494;2023-06-14T14:29:38;99127.63;;;18.85;80.38
75650;BME280;64245;51.282;22.494;2023-06-14T14:32:32;99099.44;;;18.50;81.56
75650;BME280;64245;51.282;22.494;2023-06-14T14:35:35;99091.28;;;18.50;80.70
75650;BME280;64245;51.282;22.494;2023-06-14T14:38:37;99114.78;;;18.79;79.41
75650;BME280;64245;51.282;22.494;2023-06-14T14:41:36;99129.72;;;18.83;79.31
75650;BME280;64245;51.282;22.494;2023-06-14T14:44:29;99103.16;;;19.11;78.08
75650;BME280;64245;51.282;22.494;2023-06-14T14:53:45;99107.81;;;19.78;75.51
75650;BME280;64245;51.282;22.494;2023-06-14T15:00:21;99089.34;;;19.19;76.97
75650;BME280;64245;51.282;22.494;2023-06-14T15:03:21;99088.31;;;19.27;78.10
75650;BME280;64245;51.282;22.494;2023-06-14T15:06:17;99086.75;;;18.98;76.08
75650;BME280;64245;51.282;22.494;2023-06-14T15:09:04;99081.84;;;18.80;78.09
75650;BME280;64245;51.282;22.494;2023-06-14T15:12:04;99083.75;;;18.52;80.22
75650;BME280;64245;51.282;22.494;2023-06-14T15:15:14;99090.78;;;19.09;79.57
75650;BME280;64245;51.282;22.494;2023-06-14T15:18:14;99095.78;;;18.98;79.47
75650;BME280;64245;51.282;22.494;2023-06-14T15:20:55;99096.53;;;18.86;78.72
75650;BME280;64245;51.282;22.494;2023-06-14T15:24:17;99072.34;;;18.42;81.53
75650;BME280;64245;51.282;22.494;2023-06-14T15:27:55;99086.06;;;18.55;79.15
75650;BME280;64245;51.282;22.494;2023-06-14T15:31:02;99102.34;;;18.70;79.19
75650;BME280;64245;51.282;22.494;2023-06-14T15:37:49;99118.13;;;18.46;79.00
75650;BME280;64245;51.282;22.494;2023-06-14T15:40:45;99078.94;;;17.98;80.55
75650;BME280;64245;51.282;22.494;2023-06-14T18:03:40;99117.22;;;15.24;97.08
75650;BME280;64245;51.282;22.494;2023-06-14T18:06:06;99134.81;;;15.36;97.01
75650;BME280;64245;51.282;22.494;2023-06-14T18:08:35;99105.09;;;15.11;97.03
75650;BME280;64245;51.282;22.494;2023-06-14T18:11:03;99111.53;;;15.10;97.97
75650;BME280;64245;51.282;22.494;2023-06-14T18:13:34;99126.47;;;15.06;98.63
75650;BME280;64245;51.282;22.494;2023-06-14T18:16:06;99115.69;;;14.98;98.80
75650;BME280;64245;51.282;22.494;2023-06-14T18:18:34;99129.66;;;15.18;98.85
75650;BME280;64245;51.282;22.494;2023-06-14T18:21:28;99142.94;;;15.36;97.60
75650;BME280;64245;51.282;22.494;2023-06-14T18:24:03;99131.88;;;15.14;98.36
75650;BME280;64245;51.282;22.494;2023-06-14T18:26:51;99107.84;;;15.03;98.27
75650;BME280;64245;51.282;22.494;2023-06-14T18:29:29;99131.03;;;15.14;98.75
75650;BME280;64245;51.282;22.494;2023-06-14T18:32:19;99137.81;;;15.18;98.40
75650;BME280;64245;51.282;22.494;2023-06-14T18:34:57;99157.31;;;15.13;99.09
75650;BME280;64245;51.282;22.494;2023-06-14T18:37:25;99143.41;;;15.16;98.65
75650;BME280;64245;51.282;22.494;2023-06-14T18:39:54;99142.25;;;15.03;99.34
75650;BME280;64245;51.282;22.494;2023-06-14T18:42:39;99131.47;;;14.86;100.00
75650;BME280;64245;51.282;22.494;2023-06-14T18:45:09;99115.63;;;14.75;100.00
75650;BME280;64245;51.282;22.494;2023-06-14T18:47:48;99130.34;;;14.81;100.00
75650;BME280;64245;51.282;22.494;2023-06-14T18:50:33;99133.75;;;14.75;100.00
75650;BME280;64245;51.282;22.494;2023-06-14T18:53:17;99134.53;;;14.83;100.00
75650;BME280;64245;51.282;22.494;2023-06-14T18:55:48;99130.50;;;14.79;100.00
75650;BME280;64245;51.282;22.494;2023-06-14T18:58:31;99143.19;;;14.87;100.00
75650;BME280;64245;51.282;22.494;2023-06-14T19:01:14;99120.81;;;14.85;100.00
75650;BME280;64245;51.282;22.494;2023-06-14T19:03:52;99124.75;;;14.74;100.00
75650;BME280;64245;51.282;22.494;2023-06-14T19:06:43;99123.41;;;14.70;100.00
75650;BME280;64245;51.282;22.494;2023-06-14T19:09:32;99125.28;;;14.70;100.00
75650;BME280;64245;51.282;22.494;2023-06-14T19:12:12;99141.22;;;14.65;100.00
75650;BME280;64245;51.282;22.494;2023-06-14T19:14:43;99149.06;;;14.51;100.00
75650;BME280;64245;51.282;22.494;2023-06-14T19:17:15;99140.59;;;14.38;100.00
75650;BME280;64245;51.282;22.494;2023-06-14T19:20:19;99140.09;;;14.27;100.00
75650;BME280;64245;51.282;22.494;2023-06-14T19:23:18;99143.50;;;14.12;100.00
75650;BME280;64245;51.282;22.494;2023-06-14T19:26:15;99158.56;;;14.15;100.00
75650;BME280;64245;51.282;22.494;2023-06-14T22:12:45;99118.97;;;12.99;100.00
75650;BME280;64245;51.282;22.494;2023-06-14T22:15:28;99114.38;;;12.83;100.00
75650;BME280;64245;51.282;22.494;2023-06-14T22:25:44;99130.47;;;13.01;100.00
75650;BME280;64245;51.282;22.494;2023-06-14T22:44:34;99140.28;;;13.02;100.00
75650;BME280;64245;51.282;22.494;2023-06-14T22:47:34;99141.47;;;12.99;100.00
75650;BME280;64245;51.282;22.494;2023-06-14T22:50:11;99139.44;;;13.01;100.00
75650;BME280;64245;51.282;22.494;2023-06-14T23:00:38;99137.84;;;13.25;100.00
75650;BME280;64245;51.282;22.494;2023-06-14T23:15:02;99148.25;;;13.11;100.00
75650;BME280;64245;51.282;22.494;2023-06-14T23:38:40;99114.56;;;12.56;100.00
75650;BME280;64245;51.282;22.494;2023-06-14T23:41:26;99113.38;;;12.50;100.00
75650;BME280;64245;51.282;22.494;2023-06-14T23:44:09;99123.00;;;12.53;100.00
75650;BME280;64245;51.282;22.494;2023-06-14T23:46:36;99133.38;;;12.65;100.00
75650;BME280;64245;51.282;22.494;2023-06-14T23:49:01;99126.16;;;12.74;100.00
75650;BME280;64245;51.282;22.494;2023-06-14T23:51:28;99143.94;;;12.85;100.00
75650;BME280;64245;51.282;22.494;2023-06-14T23:53:56;99121.47;;;12.92;100.00
75650;BME280;64245;51.282;22.494;2023-06-14T23:56:25;99128.59;;;12.93;100.00
75650;BME280;64245;51.282;22.494;2023-06-14T23:58:52;99107.75;;;12.77;100.00
